sensor_id;sensor_type;location;lat;lon;timestamp;temperature;humidity
31575;DHT22;18182;1.328;103.810;2023-02-07T00:00:14;27.50;99.90
31575;DHT22;18182;1.328;103.810;2023-02-07T00:02:41;27.50;99.90
31575;DHT22;18182;1.328;103.810;2023-02-07T00:05:07;27.40;99.90
31575;DHT22;18182;1.328;103.810;2023-02-07T00:07:34;27.40;99.90
31575;DHT22;18182;1.328;103.810;2023-02-07T00:10:00;27.40;99.90
31575;DHT22;18182;1.328;103.810;2023-02-07T00:12:26;27.40;99.90
31575;DHT22;18182;1.328;103.810;2023-02-07T00:14:52;27.40;99.90
31575;DHT22;18182;1.328;103.810;2023-02-07T00:17:18;27.40;99.90
31575;DHT22;18182;1.328;103.810;2023-02-07T00:19:44;27.40;99.90
31575;DHT22;18182;1.328;103.810;2023-02-07T00:22:12;27.50;99.90
31575;DHT22;18182;1.328;103.810;2023-02-07T00:24:38;27.50;99.90
31575;DHT22;18182;1.328;103.810;2023-02-07T00:27:04;27.50;99.90
31575;DHT22;18182;1.328;103.810;2023-02-07T00:29:30;27.50;99.90
31575;DHT22;18182;1.328;103.810;2023-02-07T00:31:57;27.50;99.90
31575;DHT22;18182;1.328;103.810;2023-02-07T00:34:23;27.50;99.90
31575;DHT22;18182;1.328;103.810;2023-02-07T00:36:50;27.50;99.90
31575;DHT22;18182;1.328;103.810;2023-02-07T00:39:16;27.60;99.90
31575;DHT22;18182;1.328;103.810;2023-02-07T00:41:43;27.60;99.90
31575;DHT22;18182;1.328;103.810;2023-02-07T00:44:09;27.60;99.90
31575;DHT22;18182;1.328;103.810;2023-02-07T00:46:36;27.60;99.90
31575;DHT22;18182;1.328;103.810;2023-02-07T00:49:03;27.60;99.90
31575;DHT22;18182;1.328;103.810;2023-02-07T00:51:29;27.60;99.90
31575;DHT22;18182;1.328;103.810;2023-02-07T00:53:55;27.50;99.90
31575;DHT22;18182;1.328;103.810;2023-02-07T00:56:23;27.50;99.90
31575;DHT22;18182;1.328;103.810;2023-02-07T00:58:49;27.60;99.90
31575;DHT22;18182;1.328;103.810;2023-02-07T01:01:15;27.60;99.90
31575;DHT22;18182;1.328;103.810;2023-02-07T01:03:41;27.60;99.90
31575;DHT22;18182;1.328;103.810;2023-02-07T01:06:08;27.70;99.90
31575;DHT22;18182;1.328;103.810;2023-02-07T01:08:35;27.70;99.90
31575;DHT22;18182;1.328;103.810;2023-02-07T01:11:02;27.80;99.90
31575;DHT22;18182;1.328;103.810;2023-02-07T01:13:29;27.80;99.90
31575;DHT22;18182;1.328;103.810;2023-02-07T01:15:55;27.80;99.90
31575;DHT22;18182;1.328;103.810;2023-02-07T01:18:21;27.90;99.90
31575;DHT22;18182;1.328;103.810;2023-02-07T01:20:48;27.90;99.90
31575;DHT22;18182;1.328;103.810;2023-02-07T01:23:14;28.00;99.90
31575;DHT22;18182;1.328;103.810;2023-02-07T01:25:40;28.00;99.90
31575;DHT22;18182;1.328;103.810;2023-02-07T01:28:08;28.10;99.90
31575;DHT22;18182;1.328;103.810;2023-02-07T01:30:36;28.10;99.90
31575;DHT22;18182;1.328;103.810;2023-02-07T01:33:03;28.10;99.90
31575;DHT22;18182;1.328;103.810;2023-02-07T01:35:29;28.10;99.90
31575;DHT22;18182;1.328;103.810;2023-02-07T01:37:55;28.20;99.90
31575;DHT22;18182;1.328;103.810;2023-02-07T01:40:23;28.20;99.90
31575;DHT22;18182;1.328;103.810;2023-02-07T01:42:51;28.20;99.90
31575;DHT22;18182;1.328;103.810;2023-02-07T01:45:31;28.20;99.90
31575;DHT22;18182;1.328;103.810;2023-02-07T01:47:59;28.20;99.90
31575;DHT22;18182;1.328;103.810;2023-02-07T01:50:26;28.30;99.90
31575;DHT22;18182;1.328;103.810;2023-02-07T01:52:53;28.30;99.90
31575;DHT22;18182;1.328;103.810;2023-02-07T01:55:24;28.40;99.90
31575;DHT22;18182;1.328;103.810;2023-02-07T01:57:50;28.40;99.90
31575;DHT22;18182;1.328;103.810;2023-02-07T02:00:18;28.50;99.90
31575;DHT22;18182;1.328;103.810;2023-02-07T02:02:44;28.50;99.90
31575;DHT22;18182;1.328;103.810;2023-02-07T02:05:10;28.50;99.90
31575;DHT22;18182;1.328;103.810;2023-02-07T02:07:37;28.50;99.90
31575;DHT22;18182;1.328;103.810;2023-02-07T02:10:14;28.60;99.90
31575;DHT22;18182;1.328;103.810;2023-02-07T02:23:07;28.80;99.90
31575;DHT22;18182;1.328;103.810;2023-02-07T02:25:46;28.90;99.90
31575;DHT22;18182;1.328;103.810;2023-02-07T02:28:20;29.00;99.90
31575;DHT22;18182;1.328;103.810;2023-02-07T02:35:45;29.10;99.90
31575;DHT22;18182;1.328;103.810;2023-02-07T02:38:29;29.20;99.90
31575;DHT22;18182;1.328;103.810;2023-02-07T02:41:02;29.20;99.90
31575;DHT22;18182;1.328;103.810;2023-02-07T02:43:39;29.20;99.90
31575;DHT22;18182;1.328;103.810;2023-02-07T02:46:11;29.30;99.90
31575;DHT22;18182;1.328;103.810;2023-02-07T02:48:39;29.30;99.90
31575;DHT22;18182;1.328;103.810;2023-02-07T02:51:06;29.30;99.90
31575;DHT22;18182;1.328;103.810;2023-02-07T02:53:32;29.30;99.90
31575;DHT22;18182;1.328;103.810;2023-02-07T03:03:33;29.50;99.90
31575;DHT22;18182;1.328;103.810;2023-02-07T03:11:20;29.60;99.90
31575;DHT22;18182;1.328;103.810;2023-02-07T03:18:49;29.60;99.90
31575;DHT22;18182;1.328;103.810;2023-02-07T03:21:39;29.60;99.90
31575;DHT22;18182;1.328;103.810;2023-02-07T03:24:11;29.70;99.90
31575;DHT22;18182;1.328;103.810;2023-02-07T03:26:39;29.70;99.90
31575;DHT22;18182;1.328;103.810;2023-02-07T03:29:07;29.80;99.90
31575;DHT22;18182;1.328;103.810;2023-02-07T03:31:33;29.80;99.90
31575;DHT22;18182;1.328;103.810;2023-02-07T03:34:03;29.80;99.90
31575;DHT22;18182;1.328;103.810;2023-02-07T03:36:33;29.90;99.90
31575;DHT22;18182;1.328;103.810;2023-02-07T03:39:01;30.00;99.90
31575;DHT22;18182;1.328;103.810;2023-02-07T03:41:33;30.00;99.90
31575;DHT22;18182;1.328;103.810;2023-02-07T03:44:01;30.00;99.90
31575;DHT22;18182;1.328;103.810;2023-02-07T03:46:33;30.00;99.90
31575;DHT22;18182;1.328;103.810;2023-02-07T03:48:59;30.00;99.90
31575;DHT22;18182;1.328;103.810;2023-02-07T03:51:26;30.00;99.90
31575;DHT22;18182;1.328;103.810;2023-02-07T03:53:52;30.00;99.90
31575;DHT22;18182;1.328;103.810;2023-02-07T03:56:18;30.00;99.90
31575;DHT22;18182;1.328;103.810;2023-02-07T03:58:44;30.00;99.90
31575;DHT22;18182;1.328;103.810;2023-02-07T04:01:10;30.00;99.90
31575;DHT22;18182;1.328;103.810;2023-02-07T04:03:36;30.10;99.90
31575;DHT22;18182;1.328;103.810;2023-02-07T04:06:02;30.10;99.90
31575;DHT22;18182;1.328;103.810;2023-02-07T04:08:29;30.30;99.90
31575;DHT22;18182;1.328;103.810;2023-02-07T04:10:55;30.20;99.90
31575;DHT22;18182;1.328;103.810;2023-02-07T04:13:22;30.30;99.90
31575;DHT22;18182;1.328;103.810;2023-02-07T04:15:48;30.30;99.90
31575;DHT22;18182;1.328;103.810;2023-02-07T04:18:14;30.40;99.90
31575;DHT22;18182;1.328;103.810;2023-02-07T04:20:40;30.40;99.90
31575;DHT22;18182;1.328;103.810;2023-02-07T04:23:07;30.40;99.90
31575;DHT22;18182;1.328;103.810;2023-02-07T04:25:33;30.50;99.90
31575;DHT22;18182;1.328;103.810;2023-02-07T04:27:59;30.50;99.90
31575;DHT22;18182;1.328;103.810;2023-02-07T04:30:25;30.50;99.90
31575;DHT22;18182;1.328;103.810;2023-02-07T04:32:51;30.50;99.90
31575;DHT22;18182;1.328;103.810;2023-02-07T04:35:17;30.60;99.90
31575;DHT22;18182;1.328;103.810;2023-02-07T04:37:43;30.60;99.90
31575;DHT22;18182;1.328;103.810;2023-02-07T04:40:10;30.70;99.90
31575;DHT22;18182;1.328;103.810;2023-02-07T04:42:36;30.70;99.90
31575;DHT22;18182;1.328;103.810;2023-02-07T04:45:02;30.70;99.90
31575;DHT22;18182;1.328;103.810;2023-02-07T04:47:28;30.70;99.90
31575;DHT22;18182;1.328;103.810;2023-02-07T04:49:54;30.70;99.90
31575;DHT22;18182;1.328;103.810;2023-02-07T04:52:20;30.80;99.90
31575;DHT22;18182;1.328;103.810;2023-02-07T04:54:46;30.80;99.90
31575;DHT22;18182;1.328;103.810;2023-02-07T04:57:12;30.80;99.90
31575;DHT22;18182;1.328;103.810;2023-02-07T04:59:39;30.80;99.90
31575;DHT22;18182;1.328;103.810;2023-02-07T05:02:05;30.70;99.90
31575;DHT22;18182;1.328;103.810;2023-02-07T05:04:31;30.70;99.90
31575;DHT22;18182;1.328;103.810;2023-02-07T05:06:57;30.80;99.90
31575;DHT22;18182;1.328;103.810;2023-02-07T05:09:23;30.80;99.90
31575;DHT22;18182;1.328;103.810;2023-02-07T05:11:50;30.80;99.90
31575;DHT22;18182;1.328;103.810;2023-02-07T05:14:16;30.80;99.90
31575;DHT22;18182;1.328;103.810;2023-02-07T05:16:42;30.80;99.90
31575;DHT22;18182;1.328;103.810;2023-02-07T05:19:08;30.80;99.90
31575;DHT22;18182;1.328;103.810;2023-02-07T05:21:34;30.80;99.90
31575;DHT22;18182;1.328;103.810;2023-02-07T05:24:01;30.80;99.90
31575;DHT22;18182;1.328;103.810;2023-02-07T05:26:27;30.80;99.90
31575;DHT22;18182;1.328;103.810;2023-02-07T05:28:53;30.80;99.90
31575;DHT22;18182;1.328;103.810;2023-02-07T05:31:19;30.80;99.90
31575;DHT22;18182;1.328;103.810;2023-02-07T05:33:46;30.90;99.90
31575;DHT22;18182;1.328;103.810;2023-02-07T05:36:12;31.00;99.90
31575;DHT22;18182;1.328;103.810;2023-02-07T05:38:38;31.00;99.90
31575;DHT22;18182;1.328;103.810;2023-02-07T05:41:04;31.10;99.90
31575;DHT22;18182;1.328;103.810;2023-02-07T05:43:30;31.10;99.90
31575;DHT22;18182;1.328;103.810;2023-02-07T05:45:56;31.10;99.90
31575;DHT22;18182;1.328;103.810;2023-02-07T05:48:22;31.20;99.90
31575;DHT22;18182;1.328;103.810;2023-02-07T05:50:49;31.30;99.90
31575;DHT22;18182;1.328;103.810;2023-02-07T05:53:15;31.30;99.90
31575;DHT22;18182;1.328;103.810;2023-02-07T05:55:41;31.30;99.90
31575;DHT22;18182;1.328;103.810;2023-02-07T05:58:07;31.40;99.90
31575;DHT22;18182;1.328;103.810;2023-02-07T06:00:34;31.40;99.90
31575;DHT22;18182;1.328;103.810;2023-02-07T06:03:01;31.30;99.90
31575;DHT22;18182;1.328;103.810;2023-02-07T06:05:27;31.30;99.90
31575;DHT22;18182;1.328;103.810;2023-02-07T06:07:56;31.40;99.90
31575;DHT22;18182;1.328;103.810;2023-02-07T06:10:22;31.40;99.90
31575;DHT22;18182;1.328;103.810;2023-02-07T06:12:48;31.40;99.90
31575;DHT22;18182;1.328;103.810;2023-02-07T06:15:15;31.40;99.90
31575;DHT22;18182;1.328;103.810;2023-02-07T06:17:41;31.30;99.90
31575;DHT22;18182;1.328;103.810;2023-02-07T06:20:07;31.40;99.90
31575;DHT22;18182;1.328;103.810;2023-02-07T06:22:34;31.40;99.90
31575;DHT22;18182;1.328;103.810;2023-02-07T06:25:00;31.30;99.90
31575;DHT22;18182;1.328;103.810;2023-02-07T06:27:26;31.30;99.90
31575;DHT22;18182;1.328;103.810;2023-02-07T06:29:52;31.30;99.90
31575;DHT22;18182;1.328;103.810;2023-02-07T06:32:19;31.30;99.90
31575;DHT22;18182;1.328;103.810;2023-02-07T06:34:45;31.30;99.90
31575;DHT22;18182;1.328;103.810;2023-02-07T06:37:11;31.30;99.90
31575;DHT22;18182;1.328;103.810;2023-02-07T06:39:37;31.30;99.90
31575;DHT22;18182;1.328;103.810;2023-02-07T06:42:04;31.40;99.90
31575;DHT22;18182;1.328;103.810;2023-02-07T06:44:30;31.40;99.90
31575;DHT22;18182;1.328;103.810;2023-02-07T06:46:56;31.40;99.90
31575;DHT22;18182;1.328;103.810;2023-02-07T06:49:22;31.40;99.90
31575;DHT22;18182;1.328;103.810;2023-02-07T06:51:48;31.50;99.90
31575;DHT22;18182;1.328;103.810;2023-02-07T06:54:15;31.50;99.90
31575;DHT22;18182;1.328;103.810;2023-02-07T06:56:41;31.50;99.90
31575;DHT22;18182;1.328;103.810;2023-02-07T06:59:07;31.50;99.90
31575;DHT22;18182;1.328;103.810;2023-02-07T07:01:33;31.50;99.90
31575;DHT22;18182;1.328;103.810;2023-02-07T07:03:59;31.40;99.90
31575;DHT22;18182;1.328;103.810;2023-02-07T07:06:25;31.50;99.90
31575;DHT22;18182;1.328;103.810;2023-02-07T07:08:51;31.50;99.90
31575;DHT22;18182;1.328;103.810;2023-02-07T07:11:18;31.60;99.90
31575;DHT22;18182;1.328;103.810;2023-02-07T07:13:44;31.60;99.90
31575;DHT22;18182;1.328;103.810;2023-02-07T07:16:10;31.80;99.90
31575;DHT22;18182;1.328;103.810;2023-02-07T07:18:36;31.80;99.90
31575;DHT22;18182;1.328;103.810;2023-02-07T07:21:03;32.00;99.90
31575;DHT22;18182;1.328;103.810;2023-02-07T07:23:30;31.90;99.90
31575;DHT22;18182;1.328;103.810;2023-02-07T07:25:56;31.90;99.90
31575;DHT22;18182;1.328;103.810;2023-02-07T07:28:22;31.90;99.90
31575;DHT22;18182;1.328;103.810;2023-02-07T07:30:48;31.90;99.90
31575;DHT22;18182;1.328;103.810;2023-02-07T07:33:15;31.90;99.90
31575;DHT22;18182;1.328;103.810;2023-02-07T07:35:41;31.80;99.90
31575;DHT22;18182;1.328;103.810;2023-02-07T07:38:07;31.80;99.90
31575;DHT22;18182;1.328;103.810;2023-02-07T07:40:33;31.70;99.90
31575;DHT22;18182;1.328;103.810;2023-02-07T07:42:59;31.60;99.90
31575;DHT22;18182;1.328;103.810;2023-02-07T07:45:27;31.60;99.90
31575;DHT22;18182;1.328;103.810;2023-02-07T07:47:53;31.50;99.90
31575;DHT22;18182;1.328;103.810;2023-02-07T07:50:19;31.40;99.90
31575;DHT22;18182;1.328;103.810;2023-02-07T07:52:45;31.40;99.90
31575;DHT22;18182;1.328;103.810;2023-02-07T07:55:11;31.40;99.90
31575;DHT22;18182;1.328;103.810;2023-02-07T07:57:39;31.40;99.90
31575;DHT22;18182;1.328;103.810;2023-02-07T08:00:06;31.30;99.90
31575;DHT22;18182;1.328;103.810;2023-02-07T08:02:32;31.30;99.90
31575;DHT22;18182;1.328;103.810;2023-02-07T08:04:58;31.30;99.90
31575;DHT22;18182;1.328;103.810;2023-02-07T08:07:24;31.20;99.90
31575;DHT22;18182;1.328;103.810;2023-02-07T08:09:50;31.10;99.90
31575;DHT22;18182;1.328;103.810;2023-02-07T08:12:17;31.10;99.90
31575;DHT22;18182;1.328;103.810;2023-02-07T08:14:44;31.10;99.90
31575;DHT22;18182;1.328;103.810;2023-02-07T08:17:10;31.10;99.90
31575;DHT22;18182;1.328;103.810;2023-02-07T08:19:36;31.10;99.90
31575;DHT22;18182;1.328;103.810;2023-02-07T08:22:02;31.10;99.90
31575;DHT22;18182;1.328;103.810;2023-02-07T08:24:29;31.10;99.90
31575;DHT22;18182;1.328;103.810;2023-02-07T08:26:55;31.10;99.90
31575;DHT22;18182;1.328;103.810;2023-02-07T08:29:21;31.00;99.90
31575;DHT22;18182;1.328;103.810;2023-02-07T08:31:47;31.00;99.90
31575;DHT22;18182;1.328;103.810;2023-02-07T08:34:14;31.00;99.90
31575;DHT22;18182;1.328;103.810;2023-02-07T08:36:40;30.90;99.90
31575;DHT22;18182;1.328;103.810;2023-02-07T08:39:06;30.80;99.90
31575;DHT22;18182;1.328;103.810;2023-02-07T08:41:32;30.70;99.90
31575;DHT22;18182;1.328;103.810;2023-02-07T08:43:58;30.60;99.90
31575;DHT22;18182;1.328;103.810;2023-02-07T08:46:24;30.50;99.90
31575;DHT22;18182;1.328;103.810;2023-02-07T08:48:50;30.50;99.90
31575;DHT22;18182;1.328;103.810;2023-02-07T08:51:16;30.50;99.90
31575;DHT22;18182;1.328;103.810;2023-02-07T08:53:42;30.50;99.90
31575;DHT22;18182;1.328;103.810;2023-02-07T08:56:08;30.40;99.90
31575;DHT22;18182;1.328;103.810;2023-02-07T08:58:35;30.30;99.90
31575;DHT22;18182;1.328;103.810;2023-02-07T09:01:02;30.20;99.90
31575;DHT22;18182;1.328;103.810;2023-02-07T09:03:29;30.20;99.90
31575;DHT22;18182;1.328;103.810;2023-02-07T09:05:58;30.20;99.90
31575;DHT22;18182;1.328;103.810;2023-02-07T09:08:24;30.20;99.90
31575;DHT22;18182;1.328;103.810;2023-02-07T09:10:50;30.20;99.90
31575;DHT22;18182;1.328;103.810;2023-02-07T09:13:16;30.20;99.90
31575;DHT22;18182;1.328;103.810;2023-02-07T09:15:42;30.20;99.90
31575;DHT22;18182;1.328;103.810;2023-02-07T09:18:09;30.20;99.90
31575;DHT22;18182;1.328;103.810;2023-02-07T09:20:35;30.20;99.90
31575;DHT22;18182;1.328;103.810;2023-02-07T09:23:02;30.10;99.90
31575;DHT22;18182;1.328;103.810;2023-02-07T09:25:47;30.10;99.90
31575;DHT22;18182;1.328;103.810;2023-02-07T09:28:14;30.00;99.90
31575;DHT22;18182;1.328;103.810;2023-02-07T09:30:44;30.00;99.90
31575;DHT22;18182;1.328;103.810;2023-02-07T09:33:10;30.00;99.90
31575;DHT22;18182;1.328;103.810;2023-02-07T09:35:38;30.00;99.90
31575;DHT22;18182;1.328;103.810;2023-02-07T09:38:06;30.00;99.90
31575;DHT22;18182;1.328;103.810;2023-02-07T09:40:32;30.00;99.90
31575;DHT22;18182;1.328;103.810;2023-02-07T09:45:33;29.90;99.90
31575;DHT22;18182;1.328;103.810;2023-02-07T09:48:03;29.90;99.90
31575;DHT22;18182;1.328;103.810;2023-02-07T09:50:33;29.80;99.90
31575;DHT22;18182;1.328;103.810;2023-02-07T09:53:06;29.90;99.90
31575;DHT22;18182;1.328;103.810;2023-02-07T09:55:41;29.90;99.90
31575;DHT22;18182;1.328;103.810;2023-02-07T09:58:11;29.90;99.90
31575;DHT22;18182;1.328;103.810;2023-02-07T10:00:38;29.90;99.90
31575;DHT22;18182;1.328;103.810;2023-02-07T10:05:41;29.80;99.90
31575;DHT22;18182;1.328;103.810;2023-02-07T10:08:12;29.80;99.90
31575;DHT22;18182;1.328;103.810;2023-02-07T10:13:31;29.70;99.90
31575;DHT22;18182;1.328;103.810;2023-02-07T10:18:39;29.70;99.90
31575;DHT22;18182;1.328;103.810;2023-02-07T10:21:12;29.60;99.90
31575;DHT22;18182;1.328;103.810;2023-02-07T10:26:30;29.70;99.90
31575;DHT22;18182;1.328;103.810;2023-02-07T10:29:07;29.60;99.90
31575;DHT22;18182;1.328;103.810;2023-02-07T10:31:36;29.60;99.90
31575;DHT22;18182;1.328;103.810;2023-02-07T10:34:10;29.60;99.90
31575;DHT22;18182;1.328;103.810;2023-02-07T10:36:37;29.60;99.90
31575;DHT22;18182;1.328;103.810;2023-02-07T10:41:35;29.60;99.90
31575;DHT22;18182;1.328;103.810;2023-02-07T10:44:03;29.60;99.90
31575;DHT22;18182;1.328;103.810;2023-02-07T10:46:30;29.50;99.90
31575;DHT22;18182;1.328;103.810;2023-02-07T10:48:57;29.50;99.90
31575;DHT22;18182;1.328;103.810;2023-02-07T10:51:36;29.50;99.90
31575;DHT22;18182;1.328;103.810;2023-02-07T10:54:11;29.50;99.90
31575;DHT22;18182;1.328;103.810;2023-02-07T11:01:51;29.50;99.90
31575;DHT22;18182;1.328;103.810;2023-02-07T11:04:22;29.60;99.90
31575;DHT22;18182;1.328;103.810;2023-02-07T11:06:48;29.50;99.90
31575;DHT22;18182;1.328;103.810;2023-02-07T11:09:27;29.50;99.90
31575;DHT22;18182;1.328;103.810;2023-02-07T11:11:53;29.50;99.90
31575;DHT22;18182;1.328;103.810;2023-02-07T11:14:21;29.50;99.90
31575;DHT22;18182;1.328;103.810;2023-02-07T11:16:54;29.50;99.90
31575;DHT22;18182;1.328;103.810;2023-02-07T11:19:23;29.60;99.90
31575;DHT22;18182;1.328;103.810;2023-02-07T11:21:52;29.60;99.90
31575;DHT22;18182;1.328;103.810;2023-02-07T11:24:23;29.60;99.90
31575;DHT22;18182;1.328;103.810;2023-02-07T11:26:59;29.60;99.90
31575;DHT22;18182;1.328;103.810;2023-02-07T11:29:26;29.60;99.90
31575;DHT22;18182;1.328;103.810;2023-02-07T11:31:53;29.50;99.90
31575;DHT22;18182;1.328;103.810;2023-02-07T11:34:28;29.50;99.90
31575;DHT22;18182;1.328;103.810;2023-02-07T11:39:42;29.50;99.90
31575;DHT22;18182;1.328;103.810;2023-02-07T11:42:16;29.50;99.90
31575;DHT22;18182;1.328;103.810;2023-02-07T11:44:43;29.50;99.90
31575;DHT22;18182;1.328;103.810;2023-02-07T11:47:14;29.50;99.90
31575;DHT22;18182;1.328;103.810;2023-02-07T11:49:42;29.50;99.90
31575;DHT22;18182;1.328;103.810;2023-02-07T11:52:09;29.50;99.90
31575;DHT22;18182;1.328;103.810;2023-02-07T11:54:36;29.50;99.90
31575;DHT22;18182;1.328;103.810;2023-02-07T11:59:30;29.50;99.90
31575;DHT22;18182;1.328;103.810;2023-02-07T12:01:59;29.50;99.90
31575;DHT22;18182;1.328;103.810;2023-02-07T12:04:32;29.60;99.90
31575;DHT22;18182;1.328;103.810;2023-02-07T12:07:06;29.60;99.90
31575;DHT22;18182;1.328;103.810;2023-02-07T12:09:53;29.60;99.90
31575;DHT22;18182;1.328;103.810;2023-02-07T12:12:33;29.60;99.90
31575;DHT22;18182;1.328;103.810;2023-02-07T12:15:03;29.60;99.90
31575;DHT22;18182;1.328;103.810;2023-02-07T12:20:19;29.60;99.90
31575;DHT22;18182;1.328;103.810;2023-02-07T12:23:02;29.70;99.90
31575;DHT22;18182;1.328;103.810;2023-02-07T12:25:40;29.70;99.90
31575;DHT22;18182;1.328;103.810;2023-02-07T12:28:24;29.80;99.90
31575;DHT22;18182;1.328;103.810;2023-02-07T12:30:51;29.80;99.90
31575;DHT22;18182;1.328;103.810;2023-02-07T12:33:39;29.80;99.90
31575;DHT22;18182;1.328;103.810;2023-02-07T12:36:14;29.80;99.90
31575;DHT22;18182;1.328;103.810;2023-02-07T12:38:50;29.80;99.90
31575;DHT22;18182;1.328;103.810;2023-02-07T12:41:27;29.80;99.90
31575;DHT22;18182;1.328;103.810;2023-02-07T12:49:21;29.80;99.90
31575;DHT22;18182;1.328;103.810;2023-02-07T12:54:42;29.90;99.90
31575;DHT22;18182;1.328;103.810;2023-02-07T12:57:14;30.00;99.90
31575;DHT22;18182;1.328;103.810;2023-02-07T13:02:33;29.90;99.90
31575;DHT22;18182;1.328;103.810;2023-02-07T13:12:49;29.70;99.90
31575;DHT22;18182;1.328;103.810;2023-02-07T13:17:49;29.60;99.90
31575;DHT22;18182;1.328;103.810;2023-02-07T13:23:04;29.60;99.90
31575;DHT22;18182;1.328;103.810;2023-02-07T13:25:37;29.60;99.90
31575;DHT22;18182;1.328;103.810;2023-02-07T13:28:34;29.60;99.90
31575;DHT22;18182;1.328;103.810;2023-02-07T13:30:55;29.50;99.90
31575;DHT22;18182;1.328;103.810;2023-02-07T13:33:27;29.50;99.90
31575;DHT22;18182;1.328;103.810;2023-02-07T13:35:55;29.40;99.90
31575;DHT22;18182;1.328;103.810;2023-02-07T13:41:10;29.40;99.90
31575;DHT22;18182;1.328;103.810;2023-02-07T13:54:37;29.20;99.90
31575;DHT22;18182;1.328;103.810;2023-02-07T13:57:17;29.10;99.90
31575;DHT22;18182;1.328;103.810;2023-02-07T14:03:20;29.10;99.90
31575;DHT22;18182;1.328;103.810;2023-02-07T14:05:34;29.10;99.90
31575;DHT22;18182;1.328;103.810;2023-02-07T14:08:02;29.10;99.90
31575;DHT22;18182;1.328;103.810;2023-02-07T14:10:39;29.10;99.90
31575;DHT22;18182;1.328;103.810;2023-02-07T14:13:20;29.00;99.90
31575;DHT22;18182;1.328;103.810;2023-02-07T14:21:00;29.00;99.90
31575;DHT22;18182;1.328;103.810;2023-02-07T14:23:47;29.00;99.90
31575;DHT22;18182;1.328;103.810;2023-02-07T14:31:48;29.00;99.90
31575;DHT22;18182;1.328;103.810;2023-02-07T14:34:17;29.00;99.90
31575;DHT22;18182;1.328;103.810;2023-02-07T14:36:47;29.00;99.90
31575;DHT22;18182;1.328;103.810;2023-02-07T14:41:43;28.90;99.90
31575;DHT22;18182;1.328;103.810;2023-02-07T14:47:05;28.90;99.90
31575;DHT22;18182;1.328;103.810;2023-02-07T14:49:37;28.90;99.90
31575;DHT22;18182;1.328;103.810;2023-02-07T14:52:07;28.90;99.90
31575;DHT22;18182;1.328;103.810;2023-02-07T14:54:43;28.90;99.90
31575;DHT22;18182;1.328;103.810;2023-02-07T15:04:51;28.90;99.90
31575;DHT22;18182;1.328;103.810;2023-02-07T15:07:17;28.90;99.90
31575;DHT22;18182;1.328;103.810;2023-02-07T15:09:43;28.80;99.90
31575;DHT22;18182;1.328;103.810;2023-02-07T15:12:09;28.80;99.90
31575;DHT22;18182;1.328;103.810;2023-02-07T15:14:35;28.80;99.90
31575;DHT22;18182;1.328;103.810;2023-02-07T15:17:02;28.80;99.90
31575;DHT22;18182;1.328;103.810;2023-02-07T15:19:37;28.80;99.90
31575;DHT22;18182;1.328;103.810;2023-02-07T15:22:05;28.80;99.90
31575;DHT22;18182;1.328;103.810;2023-02-07T15:24:35;28.70;99.90
31575;DHT22;18182;1.328;103.810;2023-02-07T15:27:03;28.70;99.90
31575;DHT22;18182;1.328;103.810;2023-02-07T15:29:34;28.60;99.90
31575;DHT22;18182;1.328;103.810;2023-02-07T15:32:15;28.60;99.90
31575;DHT22;18182;1.328;103.810;2023-02-07T15:34:45;28.60;99.90
31575;DHT22;18182;1.328;103.810;2023-02-07T15:37:12;28.60;99.90
31575;DHT22;18182;1.328;103.810;2023-02-07T15:39:38;28.60;99.90
31575;DHT22;18182;1.328;103.810;2023-02-07T15:42:04;28.60;99.90
31575;DHT22;18182;1.328;103.810;2023-02-07T15:44:32;28.60;99.90
31575;DHT22;18182;1.328;103.810;2023-02-07T15:47:05;28.50;99.90
31575;DHT22;18182;1.328;103.810;2023-02-07T15:49:36;28.50;99.90
31575;DHT22;18182;1.328;103.810;2023-02-07T15:52:16;28.50;99.90
31575;DHT22;18182;1.328;103.810;2023-02-07T15:54:46;28.50;99.90
31575;DHT22;18182;1.328;103.810;2023-02-07T15:59:47;28.40;99.90
31575;DHT22;18182;1.328;103.810;2023-02-07T16:02:52;28.40;99.90
31575;DHT22;18182;1.328;103.810;2023-02-07T16:07:35;28.40;99.90
31575;DHT22;18182;1.328;103.810;2023-02-07T16:12:46;28.40;99.90
31575;DHT22;18182;1.328;103.810;2023-02-07T16:15:22;28.40;99.90
31575;DHT22;18182;1.328;103.810;2023-02-07T16:17:48;28.40;99.90
31575;DHT22;18182;1.328;103.810;2023-02-07T16:20:15;28.40;99.90
31575;DHT22;18182;1.328;103.810;2023-02-07T16:22:42;28.40;99.90
31575;DHT22;18182;1.328;103.810;2023-02-07T16:25:16;28.40;99.90
31575;DHT22;18182;1.328;103.810;2023-02-07T16:27:43;28.40;99.90
31575;DHT22;18182;1.328;103.810;2023-02-07T16:30:14;28.40;99.90
31575;DHT22;18182;1.328;103.810;2023-02-07T16:32:41;28.40;99.90
31575;DHT22;18182;1.328;103.810;2023-02-07T16:35:21;28.40;99.90
31575;DHT22;18182;1.328;103.810;2023-02-07T16:37:48;28.40;99.90
31575;DHT22;18182;1.328;103.810;2023-02-07T16:40:14;28.30;99.90
31575;DHT22;18182;1.328;103.810;2023-02-07T16:42:40;28.40;99.90
31575;DHT22;18182;1.328;103.810;2023-02-07T16:45:14;28.30;99.90
31575;DHT22;18182;1.328;103.810;2023-02-07T16:47:41;28.30;99.90
31575;DHT22;18182;1.328;103.810;2023-02-07T16:50:12;28.30;99.90
31575;DHT22;18182;1.328;103.810;2023-02-07T16:52:38;28.30;99.90
31575;DHT22;18182;1.328;103.810;2023-02-07T16:55:04;28.40;99.90
31575;DHT22;18182;1.328;103.810;2023-02-07T16:57:30;28.40;99.90
31575;DHT22;18182;1.328;103.810;2023-02-07T16:59:56;28.40;99.90
31575;DHT22;18182;1.328;103.810;2023-02-07T17:02:23;28.50;99.90
31575;DHT22;18182;1.328;103.810;2023-02-07T17:04:49;28.50;99.90
31575;DHT22;18182;1.328;103.810;2023-02-07T17:07:15;28.50;99.90
31575;DHT22;18182;1.328;103.810;2023-02-07T17:09:41;28.50;99.90
31575;DHT22;18182;1.328;103.810;2023-02-07T17:12:08;28.50;99.90
31575;DHT22;18182;1.328;103.810;2023-02-07T17:14:34;28.50;99.90
31575;DHT22;18182;1.328;103.810;2023-02-07T17:17:02;28.50;99.90
31575;DHT22;18182;1.328;103.810;2023-02-07T17:19:28;28.40;99.90
31575;DHT22;18182;1.328;103.810;2023-02-07T17:21:54;28.50;99.90
31575;DHT22;18182;1.328;103.810;2023-02-07T17:24:21;28.40;99.90
31575;DHT22;18182;1.328;103.810;2023-02-07T17:26:48;28.40;99.90
31575;DHT22;18182;1.328;103.810;2023-02-07T17:29:15;28.40;99.90
31575;DHT22;18182;1.328;103.810;2023-02-07T17:31:42;28.50;99.90
31575;DHT22;18182;1.328;103.810;2023-02-07T17:34:08;28.40;99.90
31575;DHT22;18182;1.328;103.810;2023-02-07T17:36:34;28.40;99.90